sensor_id;sensor_type;location;lat;lon;timestamp;temperature;humidity
16511;DHT22;8368;48.772;8.754;2024-02-15T00:01:39;8.00;99.90
16511;DHT22;8368;48.772;8.754;2024-02-15T00:04:04;8.00;99.90
16511;DHT22;8368;48.772;8.754;2024-02-15T00:06:31;8.00;99.90
16511;DHT22;8368;48.772;8.754;2024-02-15T00:08:56;8.00;99.90
16511;DHT22;8368;48.772;8.754;2024-02-15T00:11:22;8.00;99.90
16511;DHT22;8368;48.772;8.754;2024-02-15T00:13:47;8.00;99.90
16511;DHT22;8368;48.772;8.754;2024-02-15T00:16:14;8.00;99.90
16511;DHT22;8368;48.772;8.754;2024-02-15T00:18:40;8.00;99.90
16511;DHT22;8368;48.772;8.754;2024-02-15T00:21:05;7.90;99.90
16511;DHT22;8368;48.772;8.754;2024-02-15T00:23:31;7.80;99.90
16511;DHT22;8368;48.772;8.754;2024-02-15T00:25:57;7.80;99.90
16511;DHT22;8368;48.772;8.754;2024-02-15T00:28:23;7.70;99.90
16511;DHT22;8368;48.772;8.754;2024-02-15T00:30:49;7.60;99.90
16511;DHT22;8368;48.772;8.754;2024-02-15T00:33:15;7.60;99.90
16511;DHT22;8368;48.772;8.754;2024-02-15T00:35:41;7.50;99.90
16511;DHT22;8368;48.772;8.754;2024-02-15T00:38:06;7.50;99.90
16511;DHT22;8368;48.772;8.754;2024-02-15T00:40:32;7.50;99.90
16511;DHT22;8368;48.772;8.754;2024-02-15T00:42:58;7.50;99.90
16511;DHT22;8368;48.772;8.754;2024-02-15T00:45:23;7.50;99.90
16511;DHT22;8368;48.772;8.754;2024-02-15T00:47:49;7.50;99.90
16511;DHT22;8368;48.772;8.754;2024-02-15T00:50:15;7.50;99.90
16511;DHT22;8368;48.772;8.754;2024-02-15T00:52:40;7.60;99.90
16511;DHT22;8368;48.772;8.754;2024-02-15T00:55:06;7.60;99.90
16511;DHT22;8368;48.772;8.754;2024-02-15T00:57:32;7.50;99.90
16511;DHT22;8368;48.772;8.754;2024-02-15T00:59:57;7.50;99.90
16511;DHT22;8368;48.772;8.754;2024-02-15T01:02:23;7.50;99.90
16511;DHT22;8368;48.772;8.754;2024-02-15T01:04:49;7.50;99.90
16511;DHT22;8368;48.772;8.754;2024-02-15T01:07:15;7.50;99.90
16511;DHT22;8368;48.772;8.754;2024-02-15T01:09:41;7.50;99.90
16511;DHT22;8368;48.772;8.754;2024-02-15T01:12:06;7.50;99.90
16511;DHT22;8368;48.772;8.754;2024-02-15T01:14:32;7.50;99.90
16511;DHT22;8368;48.772;8.754;2024-02-15T01:16:57;7.50;99.90
16511;DHT22;8368;48.772;8.754;2024-02-15T01:19:23;7.50;99.90
16511;DHT22;8368;48.772;8.754;2024-02-15T01:21:48;7.40;99.90
16511;DHT22;8368;48.772;8.754;2024-02-15T01:24:14;7.40;99.90
16511;DHT22;8368;48.772;8.754;2024-02-15T01:26:39;7.50;99.90
16511;DHT22;8368;48.772;8.754;2024-02-15T01:29:05;7.50;99.90
16511;DHT22;8368;48.772;8.754;2024-02-15T01:31:31;7.40;99.90
16511;DHT22;8368;48.772;8.754;2024-02-15T01:33:56;7.40;99.90
16511;DHT22;8368;48.772;8.754;2024-02-15T01:36:22;7.40;99.90
16511;DHT22;8368;48.772;8.754;2024-02-15T01:38:48;7.30;99.90
16511;DHT22;8368;48.772;8.754;2024-02-15T01:41:13;7.20;99.90
16511;DHT22;8368;48.772;8.754;2024-02-15T01:43:43;7.20;99.90
16511;DHT22;8368;48.772;8.754;2024-02-15T01:46:10;7.20;99.90
16511;DHT22;8368;48.772;8.754;2024-02-15T01:48:37;7.10;99.90
16511;DHT22;8368;48.772;8.754;2024-02-15T01:51:04;7.10;99.90
16511;DHT22;8368;48.772;8.754;2024-02-15T01:53:31;7.00;99.90
16511;DHT22;8368;48.772;8.754;2024-02-15T01:55:58;6.90;99.90
16511;DHT22;8368;48.772;8.754;2024-02-15T01:58:27;6.80;99.90
16511;DHT22;8368;48.772;8.754;2024-02-15T02:00:54;6.80;99.90
16511;DHT22;8368;48.772;8.754;2024-02-15T02:03:22;6.70;99.90
16511;DHT22;8368;48.772;8.754;2024-02-15T02:05:47;6.70;99.90
16511;DHT22;8368;48.772;8.754;2024-02-15T02:08:13;6.60;99.90
16511;DHT22;8368;48.772;8.754;2024-02-15T02:10:39;6.50;99.90
16511;DHT22;8368;48.772;8.754;2024-02-15T02:13:05;6.40;99.90
16511;DHT22;8368;48.772;8.754;2024-02-15T02:15:34;6.40;99.90
16511;DHT22;8368;48.772;8.754;2024-02-15T02:18:03;6.30;99.90
16511;DHT22;8368;48.772;8.754;2024-02-15T02:20:31;6.20;99.90
16511;DHT22;8368;48.772;8.754;2024-02-15T02:23:05;6.20;99.90
16511;DHT22;8368;48.772;8.754;2024-02-15T02:25:32;6.10;99.90
16511;DHT22;8368;48.772;8.754;2024-02-15T02:27:59;6.00;99.90
16511;DHT22;8368;48.772;8.754;2024-02-15T02:30:25;6.00;99.90
16511;DHT22;8368;48.772;8.754;2024-02-15T02:32:57;5.90;99.90
16511;DHT22;8368;48.772;8.754;2024-02-15T02:35:24;5.90;99.90
16511;DHT22;8368;48.772;8.754;2024-02-15T02:37:51;5.90;99.90
16511;DHT22;8368;48.772;8.754;2024-02-15T02:40:18;5.90;99.90
16511;DHT22;8368;48.772;8.754;2024-02-15T02:42:52;5.90;99.90
16511;DHT22;8368;48.772;8.754;2024-02-15T02:45:19;5.90;99.90
16511;DHT22;8368;48.772;8.754;2024-02-15T02:47:45;5.90;99.90
16511;DHT22;8368;48.772;8.754;2024-02-15T02:50:12;5.80;99.90
16511;DHT22;8368;48.772;8.754;2024-02-15T02:52:39;5.80;99.90
16511;DHT22;8368;48.772;8.754;2024-02-15T02:55:05;5.80;99.90
16511;DHT22;8368;48.772;8.754;2024-02-15T02:57:34;5.80;99.90
16511;DHT22;8368;48.772;8.754;2024-02-15T03:00:01;5.80;99.90
16511;DHT22;8368;48.772;8.754;2024-02-15T03:02:32;5.80;99.90
16511;DHT22;8368;48.772;8.754;2024-02-15T03:04:58;5.80;99.90
16511;DHT22;8368;48.772;8.754;2024-02-15T03:07:27;5.80;99.90
16511;DHT22;8368;48.772;8.754;2024-02-15T03:09:52;5.90;99.90
16511;DHT22;8368;48.772;8.754;2024-02-15T03:12:18;6.00;99.90
16511;DHT22;8368;48.772;8.754;2024-02-15T03:14:43;6.10;99.90
16511;DHT22;8368;48.772;8.754;2024-02-15T03:17:09;6.20;99.90
16511;DHT22;8368;48.772;8.754;2024-02-15T03:19:34;6.20;99.90
16511;DHT22;8368;48.772;8.754;2024-02-15T03:22:00;6.20;99.90
16511;DHT22;8368;48.772;8.754;2024-02-15T03:24:25;6.20;99.90
16511;DHT22;8368;48.772;8.754;2024-02-15T03:26:51;6.20;99.90
16511;DHT22;8368;48.772;8.754;2024-02-15T03:29:17;6.20;99.90
16511;DHT22;8368;48.772;8.754;2024-02-15T03:31:42;6.20;99.90
16511;DHT22;8368;48.772;8.754;2024-02-15T03:34:08;6.20;99.90
16511;DHT22;8368;48.772;8.754;2024-02-15T03:36:36;6.20;99.90
16511;DHT22;8368;48.772;8.754;2024-02-15T03:39:02;6.30;99.90
16511;DHT22;8368;48.772;8.754;2024-02-15T03:41:28;6.40;99.90
16511;DHT22;8368;48.772;8.754;2024-02-15T03:43:58;6.50;99.90
16511;DHT22;8368;48.772;8.754;2024-02-15T03:46:25;6.60;99.90
16511;DHT22;8368;48.772;8.754;2024-02-15T03:48:51;6.60;99.90
16511;DHT22;8368;48.772;8.754;2024-02-15T03:51:17;6.80;99.90
16511;DHT22;8368;48.772;8.754;2024-02-15T03:53:48;6.80;99.90
16511;DHT22;8368;48.772;8.754;2024-02-15T03:56:14;6.90;99.90
16511;DHT22;8368;48.772;8.754;2024-02-15T03:58:39;6.90;99.90
16511;DHT22;8368;48.772;8.754;2024-02-15T04:01:05;6.90;99.90
16511;DHT22;8368;48.772;8.754;2024-02-15T04:03:32;6.90;99.90
16511;DHT22;8368;48.772;8.754;2024-02-15T04:05:59;6.90;99.90
16511;DHT22;8368;48.772;8.754;2024-02-15T04:08:25;6.90;99.90
16511;DHT22;8368;48.772;8.754;2024-02-15T04:10:52;7.00;99.90
16511;DHT22;8368;48.772;8.754;2024-02-15T04:13:17;7.00;99.90
16511;DHT22;8368;48.772;8.754;2024-02-15T04:15:43;7.10;99.90
16511;DHT22;8368;48.772;8.754;2024-02-15T04:18:09;7.10;99.90
16511;DHT22;8368;48.772;8.754;2024-02-15T04:20:37;7.10;99.90
16511;DHT22;8368;48.772;8.754;2024-02-15T04:23:03;7.20;99.90
16511;DHT22;8368;48.772;8.754;2024-02-15T04:25:30;7.20;99.90
16511;DHT22;8368;48.772;8.754;2024-02-15T04:27:56;7.20;99.90
16511;DHT22;8368;48.772;8.754;2024-02-15T04:30:23;7.30;99.90
16511;DHT22;8368;48.772;8.754;2024-02-15T04:32:49;7.30;99.90
16511;DHT22;8368;48.772;8.754;2024-02-15T04:35:15;7.30;99.90
16511;DHT22;8368;48.772;8.754;2024-02-15T04:37:41;7.30;99.90
16511;DHT22;8368;48.772;8.754;2024-02-15T04:40:06;7.30;99.90
16511;DHT22;8368;48.772;8.754;2024-02-15T04:42:36;7.30;99.90
16511;DHT22;8368;48.772;8.754;2024-02-15T04:45:05;7.40;99.90
16511;DHT22;8368;48.772;8.754;2024-02-15T04:47:36;7.40;99.90
16511;DHT22;8368;48.772;8.754;2024-02-15T04:50:02;7.40;99.90
16511;DHT22;8368;48.772;8.754;2024-02-15T04:52:28;7.50;99.90
16511;DHT22;8368;48.772;8.754;2024-02-15T04:54:53;7.50;99.90
16511;DHT22;8368;48.772;8.754;2024-02-15T04:57:24;7.50;99.90
16511;DHT22;8368;48.772;8.754;2024-02-15T04:59:51;7.50;99.90
16511;DHT22;8368;48.772;8.754;2024-02-15T05:02:17;7.50;99.90
16511;DHT22;8368;48.772;8.754;2024-02-15T05:04:42;7.50;99.90
16511;DHT22;8368;48.772;8.754;2024-02-15T05:07:09;7.50;99.90
16511;DHT22;8368;48.772;8.754;2024-02-15T05:09:34;7.50;99.90
16511;DHT22;8368;48.772;8.754;2024-02-15T05:12:01;7.50;99.90
16511;DHT22;8368;48.772;8.754;2024-02-15T05:14:28;7.50;99.90
16511;DHT22;8368;48.772;8.754;2024-02-15T05:16:53;7.50;99.90
16511;DHT22;8368;48.772;8.754;2024-02-15T05:19:19;7.50;99.90
16511;DHT22;8368;48.772;8.754;2024-02-15T05:21:45;7.50;99.90
16511;DHT22;8368;48.772;8.754;2024-02-15T05:24:15;7.50;99.90
16511;DHT22;8368;48.772;8.754;2024-02-15T05:26:45;7.50;99.90
16511;DHT22;8368;48.772;8.754;2024-02-15T05:29:14;7.50;99.90
16511;DHT22;8368;48.772;8.754;2024-02-15T05:31:40;7.50;99.90
16511;DHT22;8368;48.772;8.754;2024-02-15T05:34:06;7.40;99.90
16511;DHT22;8368;48.772;8.754;2024-02-15T05:36:36;7.50;99.90
16511;DHT22;8368;48.772;8.754;2024-02-15T05:39:03;7.50;99.90
16511;DHT22;8368;48.772;8.754;2024-02-15T05:41:29;7.50;99.90
16511;DHT22;8368;48.772;8.754;2024-02-15T05:43:55;7.50;99.90
16511;DHT22;8368;48.772;8.754;2024-02-15T05:46:21;7.50;99.90
16511;DHT22;8368;48.772;8.754;2024-02-15T05:48:47;7.40;99.90
16511;DHT22;8368;48.772;8.754;2024-02-15T05:51:12;7.40;99.90
16511;DHT22;8368;48.772;8.754;2024-02-15T05:53:38;7.40;99.90
16511;DHT22;8368;48.772;8.754;2024-02-15T05:56:05;7.40;99.90
16511;DHT22;8368;48.772;8.754;2024-02-15T05:58:32;7.40;99.90
16511;DHT22;8368;48.772;8.754;2024-02-15T06:01:01;7.40;99.90
16511;DHT22;8368;48.772;8.754;2024-02-15T06:03:31;7.40;99.90
16511;DHT22;8368;48.772;8.754;2024-02-15T06:06:02;7.40;99.90
16511;DHT22;8368;48.772;8.754;2024-02-15T06:08:32;7.40;99.90
16511;DHT22;8368;48.772;8.754;2024-02-15T06:10:58;7.30;99.90
16511;DHT22;8368;48.772;8.754;2024-02-15T06:13:24;7.30;99.90
16511;DHT22;8368;48.772;8.754;2024-02-15T06:15:50;7.30;99.90
16511;DHT22;8368;48.772;8.754;2024-02-15T06:18:24;7.20;99.90
16511;DHT22;8368;48.772;8.754;2024-02-15T06:20:52;7.20;99.90
16511;DHT22;8368;48.772;8.754;2024-02-15T06:23:18;7.20;99.90
16511;DHT22;8368;48.772;8.754;2024-02-15T06:25:46;7.10;99.90
16511;DHT22;8368;48.772;8.754;2024-02-15T06:28:16;7.20;99.90
16511;DHT22;8368;48.772;8.754;2024-02-15T06:31:00;7.10;99.90
16511;DHT22;8368;48.772;8.754;2024-02-15T06:33:44;7.10;99.90
16511;DHT22;8368;48.772;8.754;2024-02-15T06:36:28;7.10;99.90
16511;DHT22;8368;48.772;8.754;2024-02-15T06:39:12;7.00;99.90
16511;DHT22;8368;48.772;8.754;2024-02-15T06:41:56;7.00;99.90
16511;DHT22;8368;48.772;8.754;2024-02-15T06:44:22;7.00;99.90
16511;DHT22;8368;48.772;8.754;2024-02-15T06:46:49;7.00;99.90
16511;DHT22;8368;48.772;8.754;2024-02-15T06:49:15;7.00;99.90
16511;DHT22;8368;48.772;8.754;2024-02-15T06:51:41;6.90;99.90
16511;DHT22;8368;48.772;8.754;2024-02-15T06:54:07;7.00;99.90
16511;DHT22;8368;48.772;8.754;2024-02-15T06:56:36;6.90;99.90
16511;DHT22;8368;48.772;8.754;2024-02-15T06:59:03;6.90;99.90
16511;DHT22;8368;48.772;8.754;2024-02-15T07:01:28;6.90;99.90
16511;DHT22;8368;48.772;8.754;2024-02-15T07:03:54;6.90;99.90
16511;DHT22;8368;48.772;8.754;2024-02-15T07:06:21;6.90;99.90
16511;DHT22;8368;48.772;8.754;2024-02-15T07:08:47;6.90;99.90
16511;DHT22;8368;48.772;8.754;2024-02-15T07:11:16;6.90;99.90
16511;DHT22;8368;48.772;8.754;2024-02-15T07:13:41;6.90;99.90
16511;DHT22;8368;48.772;8.754;2024-02-15T07:16:08;7.00;99.90
16511;DHT22;8368;48.772;8.754;2024-02-15T07:18:33;7.00;99.90
16511;DHT22;8368;48.772;8.754;2024-02-15T07:20:59;7.10;99.90
16511;DHT22;8368;48.772;8.754;2024-02-15T07:23:26;7.10;99.90
16511;DHT22;8368;48.772;8.754;2024-02-15T07:25:52;7.20;99.90
16511;DHT22;8368;48.772;8.754;2024-02-15T07:28:21;7.20;99.90
16511;DHT22;8368;48.772;8.754;2024-02-15T07:30:47;7.20;99.90
16511;DHT22;8368;48.772;8.754;2024-02-15T07:33:16;7.20;99.90
16511;DHT22;8368;48.772;8.754;2024-02-15T07:35:43;7.30;99.90
16511;DHT22;8368;48.772;8.754;2024-02-15T07:38:09;7.40;99.90
16511;DHT22;8368;48.772;8.754;2024-02-15T07:40:36;7.40;99.90
16511;DHT22;8368;48.772;8.754;2024-02-15T07:43:05;7.50;99.90
16511;DHT22;8368;48.772;8.754;2024-02-15T07:45:31;7.50;99.90
16511;DHT22;8368;48.772;8.754;2024-02-15T07:48:00;7.50;99.90
16511;DHT22;8368;48.772;8.754;2024-02-15T07:50:26;7.50;99.90
16511;DHT22;8368;48.772;8.754;2024-02-15T07:52:52;7.60;99.90
16511;DHT22;8368;48.772;8.754;2024-02-15T07:55:18;7.60;99.90
16511;DHT22;8368;48.772;8.754;2024-02-15T07:57:44;7.60;99.90
16511;DHT22;8368;48.772;8.754;2024-02-15T08:00:13;7.60;99.90
16511;DHT22;8368;48.772;8.754;2024-02-15T08:02:45;7.60;99.90
16511;DHT22;8368;48.772;8.754;2024-02-15T08:05:11;7.70;99.90
16511;DHT22;8368;48.772;8.754;2024-02-15T08:07:40;7.70;99.90
16511;DHT22;8368;48.772;8.754;2024-02-15T08:10:06;7.70;99.90
16511;DHT22;8368;48.772;8.754;2024-02-15T08:12:41;7.70;99.90
16511;DHT22;8368;48.772;8.754;2024-02-15T08:15:08;7.70;99.90
16511;DHT22;8368;48.772;8.754;2024-02-15T08:17:44;7.80;99.90
16511;DHT22;8368;48.772;8.754;2024-02-15T08:20:14;7.80;99.90
16511;DHT22;8368;48.772;8.754;2024-02-15T08:22:40;7.70;99.90
16511;DHT22;8368;48.772;8.754;2024-02-15T08:25:10;7.70;99.90
16511;DHT22;8368;48.772;8.754;2024-02-15T08:27:41;7.70;99.90
16511;DHT22;8368;48.772;8.754;2024-02-15T08:30:14;7.70;99.90
16511;DHT22;8368;48.772;8.754;2024-02-15T08:32:40;7.80;99.90
16511;DHT22;8368;48.772;8.754;2024-02-15T08:35:08;7.80;99.90
16511;DHT22;8368;48.772;8.754;2024-02-15T08:37:35;7.80;99.90
16511;DHT22;8368;48.772;8.754;2024-02-15T08:40:04;7.90;99.90
16511;DHT22;8368;48.772;8.754;2024-02-15T08:42:30;7.90;99.90
16511;DHT22;8368;48.772;8.754;2024-02-15T08:44:56;8.00;99.90
16511;DHT22;8368;48.772;8.754;2024-02-15T08:47:22;8.00;99.90
16511;DHT22;8368;48.772;8.754;2024-02-15T08:49:47;8.00;99.90
16511;DHT22;8368;48.772;8.754;2024-02-15T08:52:13;8.00;99.90
16511;DHT22;8368;48.772;8.754;2024-02-15T08:54:38;8.10;99.90
16511;DHT22;8368;48.772;8.754;2024-02-15T08:57:05;8.10;99.90
16511;DHT22;8368;48.772;8.754;2024-02-15T08:59:31;8.10;99.90
16511;DHT22;8368;48.772;8.754;2024-02-15T09:01:57;8.10;99.90
16511;DHT22;8368;48.772;8.754;2024-02-15T09:04:23;8.10;99.90
16511;DHT22;8368;48.772;8.754;2024-02-15T09:06:52;8.20;99.90
16511;DHT22;8368;48.772;8.754;2024-02-15T09:09:18;8.30;99.90
16511;DHT22;8368;48.772;8.754;2024-02-15T09:11:43;8.30;99.90
16511;DHT22;8368;48.772;8.754;2024-02-15T09:14:09;8.40;99.90
16511;DHT22;8368;48.772;8.754;2024-02-15T09:16:37;8.50;99.90
16511;DHT22;8368;48.772;8.754;2024-02-15T09:19:03;8.60;99.90
16511;DHT22;8368;48.772;8.754;2024-02-15T09:21:28;8.60;99.90
16511;DHT22;8368;48.772;8.754;2024-02-15T09:23:55;8.70;99.90
16511;DHT22;8368;48.772;8.754;2024-02-15T09:26:21;8.70;99.90
16511;DHT22;8368;48.772;8.754;2024-02-15T09:28:47;8.80;99.90
16511;DHT22;8368;48.772;8.754;2024-02-15T09:31:13;8.90;99.90
16511;DHT22;8368;48.772;8.754;2024-02-15T09:33:39;9.00;99.90
16511;DHT22;8368;48.772;8.754;2024-02-15T09:36:05;9.20;99.90
16511;DHT22;8368;48.772;8.754;2024-02-15T09:38:30;9.20;99.90
16511;DHT22;8368;48.772;8.754;2024-02-15T09:40:56;9.40;99.90
16511;DHT22;8368;48.772;8.754;2024-02-15T09:43:22;9.50;99.90
16511;DHT22;8368;48.772;8.754;2024-02-15T09:45:51;9.60;99.90
16511;DHT22;8368;48.772;8.754;2024-02-15T09:48:18;9.60;99.90
16511;DHT22;8368;48.772;8.754;2024-02-15T09:50:45;9.70;99.90
16511;DHT22;8368;48.772;8.754;2024-02-15T09:53:12;9.80;99.90
16511;DHT22;8368;48.772;8.754;2024-02-15T09:55:40;9.90;99.90
16511;DHT22;8368;48.772;8.754;2024-02-15T09:58:08;10.10;99.90
16511;DHT22;8368;48.772;8.754;2024-02-15T10:00:35;10.10;99.90
16511;DHT22;8368;48.772;8.754;2024-02-15T10:03:02;10.20;99.90
16511;DHT22;8368;48.772;8.754;2024-02-15T10:05:30;10.30;99.90
16511;DHT22;8368;48.772;8.754;2024-02-15T10:07:56;10.40;99.90
16511;DHT22;8368;48.772;8.754;2024-02-15T10:10:23;10.50;99.90
16511;DHT22;8368;48.772;8.754;2024-02-15T10:12:51;10.60;99.90
16511;DHT22;8368;48.772;8.754;2024-02-15T10:18:05;10.70;99.90
16511;DHT22;8368;48.772;8.754;2024-02-15T10:20:34;10.80;99.90
16511;DHT22;8368;48.772;8.754;2024-02-15T10:25:29;10.90;99.90
16511;DHT22;8368;48.772;8.754;2024-02-15T10:28:09;11.10;99.90
16511;DHT22;8368;48.772;8.754;2024-02-15T10:30:36;11.10;99.90
16511;DHT22;8368;48.772;8.754;2024-02-15T10:33:03;11.30;99.90
16511;DHT22;8368;48.772;8.754;2024-02-15T10:35:29;11.30;99.90
16511;DHT22;8368;48.772;8.754;2024-02-15T10:38:21;11.40;99.90
16511;DHT22;8368;48.772;8.754;2024-02-15T10:41:03;11.50;99.90
16511;DHT22;8368;48.772;8.754;2024-02-15T10:43:30;11.60;99.90
16511;DHT22;8368;48.772;8.754;2024-02-15T10:45:57;11.70;99.90
16511;DHT22;8368;48.772;8.754;2024-02-15T10:48:23;11.70;99.90
16511;DHT22;8368;48.772;8.754;2024-02-15T10:50:51;11.80;99.90
16511;DHT22;8368;48.772;8.754;2024-02-15T10:53:22;11.90;99.90
16511;DHT22;8368;48.772;8.754;2024-02-15T10:58:19;12.10;99.90
16511;DHT22;8368;48.772;8.754;2024-02-15T11:00:46;12.30;99.90
16511;DHT22;8368;48.772;8.754;2024-02-15T11:03:19;12.40;99.90
16511;DHT22;8368;48.772;8.754;2024-02-15T11:05:46;12.50;99.90
16511;DHT22;8368;48.772;8.754;2024-02-15T11:08:12;12.60;99.90
16511;DHT22;8368;48.772;8.754;2024-02-15T11:10:39;12.70;99.90
16511;DHT22;8368;48.772;8.754;2024-02-15T11:13:08;12.80;99.90
16511;DHT22;8368;48.772;8.754;2024-02-15T11:15:45;12.80;99.90
16511;DHT22;8368;48.772;8.754;2024-02-15T11:18:12;12.80;99.90
16511;DHT22;8368;48.772;8.754;2024-02-15T11:23:04;12.90;99.90
16511;DHT22;8368;48.772;8.754;2024-02-15T11:25:37;12.90;99.90
16511;DHT22;8368;48.772;8.754;2024-02-15T11:30:53;12.90;99.90
16511;DHT22;8368;48.772;8.754;2024-02-15T11:33:29;12.90;99.90
16511;DHT22;8368;48.772;8.754;2024-02-15T11:36:08;13.00;99.90
16511;DHT22;8368;48.772;8.754;2024-02-15T11:38:35;12.90;99.90
16511;DHT22;8368;48.772;8.754;2024-02-15T11:41:02;12.90;99.90
16511;DHT22;8368;48.772;8.754;2024-02-15T11:46:15;12.90;99.90
16511;DHT22;8368;48.772;8.754;2024-02-15T11:48:41;13.00;99.90
16511;DHT22;8368;48.772;8.754;2024-02-15T11:51:07;13.00;99.90
16511;DHT22;8368;48.772;8.754;2024-02-15T11:53:36;13.10;99.90
16511;DHT22;8368;48.772;8.754;2024-02-15T11:56:03;13.00;99.90
16511;DHT22;8368;48.772;8.754;2024-02-15T11:58:30;13.10;99.90
16511;DHT22;8368;48.772;8.754;2024-02-15T12:01:08;13.20;99.90
16511;DHT22;8368;48.772;8.754;2024-02-15T12:03:54;13.40;99.90
16511;DHT22;8368;48.772;8.754;2024-02-15T12:06:38;13.60;99.90
16511;DHT22;8368;48.772;8.754;2024-02-15T12:09:23;13.70;99.90
16511;DHT22;8368;48.772;8.754;2024-02-15T12:12:09;13.80;99.90
16511;DHT22;8368;48.772;8.754;2024-02-15T12:15:00;13.90;99.90
16511;DHT22;8368;48.772;8.754;2024-02-15T12:17:45;14.00;99.90
16511;DHT22;8368;48.772;8.754;2024-02-15T12:20:29;14.10;99.90
16511;DHT22;8368;48.772;8.754;2024-02-15T12:22:54;14.10;99.90
16511;DHT22;8368;48.772;8.754;2024-02-15T12:25:21;14.00;99.90
16511;DHT22;8368;48.772;8.754;2024-02-15T12:27:55;13.90;99.90
16511;DHT22;8368;48.772;8.754;2024-02-15T12:30:21;13.90;99.90
16511;DHT22;8368;48.772;8.754;2024-02-15T12:32:47;13.70;99.90
16511;DHT22;8368;48.772;8.754;2024-02-15T12:35:14;13.70;99.90
16511;DHT22;8368;48.772;8.754;2024-02-15T12:37:45;13.60;99.90
16511;DHT22;8368;48.772;8.754;2024-02-15T12:40:20;13.60;99.90
16511;DHT22;8368;48.772;8.754;2024-02-15T12:42:47;13.60;99.90
16511;DHT22;8368;48.772;8.754;2024-02-15T12:45:25;13.60;99.90
16511;DHT22;8368;48.772;8.754;2024-02-15T12:47:53;13.70;99.90
16511;DHT22;8368;48.772;8.754;2024-02-15T12:50:21;13.70;99.90
16511;DHT22;8368;48.772;8.754;2024-02-15T12:52:47;13.80;99.90
16511;DHT22;8368;48.772;8.754;2024-02-15T12:55:15;13.80;99.90
16511;DHT22;8368;48.772;8.754;2024-02-15T12:57:43;13.90;99.90
16511;DHT22;8368;48.772;8.754;2024-02-15T13:00:12;13.90;99.90
16511;DHT22;8368;48.772;8.754;2024-02-15T13:02:45;13.90;99.90
16511;DHT22;8368;48.772;8.754;2024-02-15T13:05:11;13.90;99.90
16511;DHT22;8368;48.772;8.754;2024-02-15T13:07:37;13.90;99.90
16511;DHT22;8368;48.772;8.754;2024-02-15T13:10:04;14.00;99.90
16511;DHT22;8368;48.772;8.754;2024-02-15T13:12:33;14.10;99.90
16511;DHT22;8368;48.772;8.754;2024-02-15T13:15:01;14.30;99.90
16511;DHT22;8368;48.772;8.754;2024-02-15T13:17:29;14.40;99.90
16511;DHT22;8368;48.772;8.754;2024-02-15T13:19:54;14.40;99.90
16511;DHT22;8368;48.772;8.754;2024-02-15T13:22:28;14.30;99.90
16511;DHT22;8368;48.772;8.754;2024-02-15T13:24:54;14.20;99.90
16511;DHT22;8368;48.772;8.754;2024-02-15T13:27:20;14.30;99.90
16511;DHT22;8368;48.772;8.754;2024-02-15T13:29:48;14.10;99.90
16511;DHT22;8368;48.772;8.754;2024-02-15T13:32:14;14.00;99.90
16511;DHT22;8368;48.772;8.754;2024-02-15T13:34:42;14.00;99.90
16511;DHT22;8368;48.772;8.754;2024-02-15T13:37:08;14.10;99.90
16511;DHT22;8368;48.772;8.754;2024-02-15T13:39:33;14.10;99.90
16511;DHT22;8368;48.772;8.754;2024-02-15T13:42:00;14.20;99.90
16511;DHT22;8368;48.772;8.754;2024-02-15T13:44:26;14.20;99.90
16511;DHT22;8368;48.772;8.754;2024-02-15T13:46:52;14.30;99.90
16511;DHT22;8368;48.772;8.754;2024-02-15T13:49:23;14.30;99.90
16511;DHT22;8368;48.772;8.754;2024-02-15T13:51:49;14.40;99.90
16511;DHT22;8368;48.772;8.754;2024-02-15T13:54:17;14.40;99.90
16511;DHT22;8368;48.772;8.754;2024-02-15T13:56:43;14.40;99.90
16511;DHT22;8368;48.772;8.754;2024-02-15T13:59:09;14.40;99.90
16511;DHT22;8368;48.772;8.754;2024-02-15T14:01:34;14.40;99.90
16511;DHT22;8368;48.772;8.754;2024-02-15T14:04:00;14.30;99.90
16511;DHT22;8368;48.772;8.754;2024-02-15T14:06:26;14.30;99.90
16511;DHT22;8368;48.772;8.754;2024-02-15T14:08:51;14.30;99.90
16511;DHT22;8368;48.772;8.754;2024-02-15T14:11:17;14.30;99.90
16511;DHT22;8368;48.772;8.754;2024-02-15T14:13:43;14.30;99.90
16511;DHT22;8368;48.772;8.754;2024-02-15T14:16:08;14.30;99.90
16511;DHT22;8368;48.772;8.754;2024-02-15T14:18:34;14.30;99.90
16511;DHT22;8368;48.772;8.754;2024-02-15T14:21:00;14.30;99.90
16511;DHT22;8368;48.772;8.754;2024-02-15T14:23:26;14.20;99.90
16511;DHT22;8368;48.772;8.754;2024-02-15T14:25:53;14.30;99.90
16511;DHT22;8368;48.772;8.754;2024-02-15T14:28:19;14.20;99.90
16511;DHT22;8368;48.772;8.754;2024-02-15T14:30:45;14.10;99.90
16511;DHT22;8368;48.772;8.754;2024-02-15T14:33:29;14.10;99.90
16511;DHT22;8368;48.772;8.754;2024-02-15T14:35:55;14.20;99.90
16511;DHT22;8368;48.772;8.754;2024-02-15T14:38:21;14.10;99.90
16511;DHT22;8368;48.772;8.754;2024-02-15T14:40:49;14.10;99.90
16511;DHT22;8368;48.772;8.754;2024-02-15T14:43:23;14.10;99.90
16511;DHT22;8368;48.772;8.754;2024-02-15T14:45:52;14.10;99.90
16511;DHT22;8368;48.772;8.754;2024-02-15T14:48:18;14.00;99.90
16511;DHT22;8368;48.772;8.754;2024-02-15T14:50:46;14.00;99.90
16511;DHT22;8368;48.772;8.754;2024-02-15T14:53:12;14.00;99.90
16511;DHT22;8368;48.772;8.754;2024-02-15T14:55:38;14.10;99.90
16511;DHT22;8368;48.772;8.754;2024-02-15T14:58:05;14.00;99.90
16511;DHT22;8368;48.772;8.754;2024-02-15T15:00:33;13.80;99.90
16511;DHT22;8368;48.772;8.754;2024-02-15T15:02:59;13.70;99.90
16511;DHT22;8368;48.772;8.754;2024-02-15T15:05:24;13.60;99.90
16511;DHT22;8368;48.772;8.754;2024-02-15T15:08:09;13.60;99.90
16511;DHT22;8368;48.772;8.754;2024-02-15T15:10:55;13.50;99.90
16511;DHT22;8368;48.772;8.754;2024-02-15T15:13:39;13.50;99.90
16511;DHT22;8368;48.772;8.754;2024-02-15T15:16:05;13.40;99.90
16511;DHT22;8368;48.772;8.754;2024-02-15T15:18:32;13.30;99.90
16511;DHT22;8368;48.772;8.754;2024-02-15T15:21:01;13.30;99.90
16511;DHT22;8368;48.772;8.754;2024-02-15T15:23:27;13.20;99.90
16511;DHT22;8368;48.772;8.754;2024-02-15T15:25:59;13.20;99.90
16511;DHT22;8368;48.772;8.754;2024-02-15T15:28:25;13.10;99.90
16511;DHT22;8368;48.772;8.754;2024-02-15T15:30:50;13.10;99.90
16511;DHT22;8368;48.772;8.754;2024-02-15T15:33:16;13.00;99.90
16511;DHT22;8368;48.772;8.754;2024-02-15T15:35:43;12.90;99.90
16511;DHT22;8368;48.772;8.754;2024-02-15T15:38:08;12.90;99.90
16511;DHT22;8368;48.772;8.754;2024-02-15T15:40:34;12.90;99.90
16511;DHT22;8368;48.772;8.754;2024-02-15T15:43:00;12.80;99.90
16511;DHT22;8368;48.772;8.754;2024-02-15T15:45:27;12.80;99.90
16511;DHT22;8368;48.772;8.754;2024-02-15T15:47:53;12.70;99.90
16511;DHT22;8368;48.772;8.754;2024-02-15T15:50:19;12.60;99.90
16511;DHT22;8368;48.772;8.754;2024-02-15T15:52:45;12.50;99.90
16511;DHT22;8368;48.772;8.754;2024-02-15T15:55:10;12.40;99.90
16511;DHT22;8368;48.772;8.754;2024-02-15T15:57:40;12.30;99.90
16511;DHT22;8368;48.772;8.754;2024-02-15T16:00:07;12.30;99.90
16511;DHT22;8368;48.772;8.754;2024-02-15T16:02:40;12.20;99.90
16511;DHT22;8368;48.772;8.754;2024-02-15T16:05:08;12.10;99.90
16511;DHT22;8368;48.772;8.754;2024-02-15T16:07:33;12.00;99.90
16511;DHT22;8368;48.772;8.754;2024-02-15T16:09:59;11.90;99.90
16511;DHT22;8368;48.772;8.754;2024-02-15T16:12:25;11.80;99.90
16511;DHT22;8368;48.772;8.754;2024-02-15T16:14:50;11.70;99.90